createdAt,value
2022-09-26T00:01:25.586Z,6.07
2022-09-26T00:03:57.711Z,5.50
2022-09-26T00:06:24.850Z,5.57
2022-09-26T00:08:51.497Z,5.67
2022-09-26T00:11:21.339Z,5.30
2022-09-26T00:13:47.860Z,5.90
2022-09-26T00:16:15.327Z,5.53
2022-09-26T00:18:41.889Z,5.30
2022-09-26T00:21:10.795Z,6.00
2022-09-26T00:23:37.224Z,5.23
2022-09-26T00:26:04.295Z,4.83
2022-09-26T00:28:30.806Z,5.50
2022-09-26T00:30:57.323Z,5.30
2022-09-26T00:33:24.194Z,5.23
2022-09-26T00:35:52.086Z,5.40
2022-09-26T00:38:18.921Z,5.27
2022-09-26T00:40:46.169Z,5.73
2022-09-26T00:43:36.018Z,4.80
2022-09-26T00:46:24.338Z,5.07
2022-09-26T00:49:20.070Z,4.87
2022-09-26T00:51:53.302Z,5.03
2022-09-26T00:54:19.989Z,4.70
2022-09-26T00:56:49.385Z,5.40
2022-09-26T00:59:22.155Z,4.80
2022-09-26T01:01:50.562Z,4.97
2022-09-26T01:04:17.498Z,4.77
2022-09-26T01:06:45.275Z,4.57
2022-09-26T01:09:14.149Z,5.23
2022-09-26T01:11:41.422Z,4.80
2022-09-26T01:14:10.597Z,4.90
2022-09-26T01:16:39.306Z,4.90
2022-09-26T01:19:12.983Z,4.80
2022-09-26T01:22:02.106Z,4.60
2022-09-26T01:24:34.504Z,4.77
2022-09-26T01:27:22.689Z,5.10
2022-09-26T01:30:04.403Z,5.10
2022-09-26T01:32:49.130Z,4.80
2022-09-26T01:35:31.994Z,5.13
2022-09-26T01:38:37.172Z,5.03
2022-09-26T01:41:34.059Z,5.00
2022-09-26T01:44:23.639Z,4.53
2022-09-26T01:47:01.049Z,4.57
2022-09-26T01:49:48.400Z,4.47
2022-09-26T01:52:36.977Z,4.90
2022-09-26T01:55:12.485Z,4.67
2022-09-26T01:57:44.923Z,4.60
2022-09-26T02:00:12.681Z,4.43
2022-09-26T02:02:45.227Z,4.10
2022-09-26T02:05:25.731Z,4.77
2022-09-26T02:07:58.921Z,4.83
2022-09-26T02:10:35.513Z,4.50
2022-09-26T02:13:16.129Z,4.00
2022-09-26T02:15:44.475Z,4.13
2022-09-26T02:18:21.050Z,5.17
2022-09-26T02:21:01.998Z,3.93
2022-09-26T02:23:28.675Z,4.03
2022-09-26T02:25:55.158Z,4.23
2022-09-26T02:28:23.437Z,4.50
2022-09-26T02:30:50.364Z,4.17
2022-09-26T02:33:16.950Z,3.87
2022-09-26T02:35:55.383Z,4.07
2022-09-26T02:38:23.356Z,3.93
2022-09-26T02:40:57.144Z,4.20
2022-09-26T02:44:08.575Z,4.33
2022-09-26T02:47:08.964Z,4.63
2022-09-26T02:49:55.510Z,4.87
2022-09-26T02:52:25.783Z,4.30
2022-09-26T02:55:10.602Z,4.37
2022-09-26T02:58:18.256Z,4.40
2022-09-26T03:01:15.765Z,4.13
2022-09-26T03:03:52.964Z,4.70
2022-09-26T03:06:23.168Z,4.00
2022-09-26T03:08:50.530Z,4.43
2022-09-26T03:11:20.768Z,4.53
2022-09-26T03:13:47.502Z,4.67
2022-09-26T03:16:14.529Z,5.10
2022-09-26T03:18:53.020Z,4.30
2022-09-26T03:21:19.538Z,4.80
2022-09-26T03:23:46.042Z,4.63
2022-09-26T03:26:16.547Z,4.30
2022-09-26T03:28:43.142Z,4.40
2022-09-26T03:31:09.587Z,4.60
2022-09-26T03:33:35.981Z,4.43
2022-09-26T03:36:07.369Z,4.70
2022-09-26T03:38:33.765Z,3.87
2022-09-26T03:41:00.298Z,4.53
2022-09-26T03:43:26.770Z,4.30
2022-09-26T03:45:53.235Z,4.20
2022-09-26T03:48:19.668Z,4.23
2022-09-26T03:50:46.143Z,4.57
2022-09-26T03:53:12.546Z,4.43
2022-09-26T03:55:38.934Z,4.30
2022-09-26T03:58:05.324Z,4.10
2022-09-26T04:00:31.749Z,4.23
2022-09-26T04:03:02.923Z,4.57
2022-09-26T04:05:29.745Z,4.03
2022-09-26T04:07:56.117Z,4.07
2022-09-26T04:10:24.170Z,3.97
2022-09-26T04:12:50.550Z,4.27
2022-09-26T04:15:17.026Z,4.10
2022-09-26T04:17:43.390Z,4.13
2022-09-26T04:20:09.790Z,4.33
2022-09-26T04:22:36.215Z,4.53
2022-09-26T04:25:02.638Z,4.40
2022-09-26T04:27:29.095Z,3.77
2022-09-26T04:29:57.261Z,4.07
2022-09-26T04:32:24.795Z,4.50
2022-09-26T04:34:51.198Z,3.93
2022-09-26T04:37:18.342Z,4.43
2022-09-26T04:39:44.745Z,3.70
2022-09-26T04:42:11.098Z,4.23
2022-09-26T04:44:37.484Z,4.00
2022-09-26T04:47:03.858Z,4.30
2022-09-26T04:49:31.102Z,4.20
2022-09-26T04:51:57.466Z,4.10
2022-09-26T04:54:24.072Z,4.23
2022-09-26T04:56:50.435Z,3.93
2022-09-26T04:59:16.912Z,4.23
2022-09-26T05:01:43.344Z,3.83
2022-09-26T05:04:10.819Z,4.37
2022-09-26T05:06:37.205Z,4.33
2022-09-26T05:09:04.359Z,3.97
2022-09-26T05:11:32.415Z,5.23
2022-09-26T05:13:58.861Z,4.70
2022-09-26T05:16:28.245Z,4.57
2022-09-26T05:18:56.531Z,4.30
2022-09-26T05:21:22.916Z,3.87
2022-09-26T05:24:08.026Z,4.33
2022-09-26T05:26:43.064Z,3.87
2022-09-26T05:29:09.801Z,3.73
2022-09-26T05:31:37.628Z,4.07
2022-09-26T05:34:13.056Z,3.97
2022-09-26T05:36:43.072Z,4.30
2022-09-26T05:39:29.450Z,3.87
2022-09-26T05:41:55.942Z,4.93
2022-09-26T05:44:22.383Z,4.67
2022-09-26T05:46:50.271Z,5.10
2022-09-26T05:49:16.737Z,4.90
2022-09-26T05:51:43.136Z,4.63
2022-09-26T05:54:09.580Z,4.43
2022-09-26T05:56:37.385Z,5.07
2022-09-26T05:59:04.750Z,5.03
2022-09-26T06:01:32.621Z,5.00
2022-09-26T06:03:59.116Z,4.93
2022-09-26T06:06:27.102Z,5.33
2022-09-26T06:08:53.530Z,5.03
2022-09-26T06:11:30.603Z,5.00
2022-09-26T06:13:59.235Z,5.80
2022-09-26T06:16:26.182Z,5.73
2022-09-26T06:18:52.960Z,5.70
2022-09-26T06:21:20.147Z,6.10
2022-09-26T06:23:46.658Z,6.33
2022-09-26T06:26:17.139Z,5.67
2022-09-26T06:28:43.602Z,5.50
2022-09-26T06:31:14.854Z,6.80
2022-09-26T06:33:41.387Z,7.03
2022-09-26T06:36:09.516Z,6.47
2022-09-26T06:38:36.447Z,6.63
2022-09-26T06:41:03.276Z,5.70
2022-09-26T06:43:30.097Z,6.57
2022-09-26T06:45:56.496Z,6.37
2022-09-26T06:48:24.960Z,7.37
2022-09-26T06:50:53.115Z,7.10
2022-09-26T06:53:19.744Z,7.00
2022-09-26T06:55:46.156Z,6.20
2022-09-26T06:58:12.664Z,6.07
2022-09-26T07:00:39.798Z,7.43
2022-09-26T07:03:06.360Z,7.07
2022-09-26T07:05:32.845Z,6.73
2022-09-26T07:07:59.307Z,7.47
2022-09-26T07:10:25.740Z,6.83
2022-09-26T07:12:53.187Z,7.10
2022-09-26T07:15:20.388Z,7.20
2022-09-26T07:17:48.208Z,7.83
2022-09-26T07:20:20.207Z,7.80
2022-09-26T07:22:47.150Z,8.17
2022-09-26T07:25:14.035Z,7.77
2022-09-26T07:27:40.763Z,7.30
2022-09-26T07:30:09.096Z,7.30
2022-09-26T07:32:36.229Z,8.07
2022-09-26T07:35:03.693Z,7.00
2022-09-26T07:37:31.431Z,7.90
2022-09-26T07:40:01.450Z,7.83
2022-09-26T07:42:28.341Z,8.30
2022-09-26T07:45:26.160Z,9.27
2022-09-26T07:47:59.738Z,8.20
2022-09-26T07:50:26.166Z,7.40
2022-09-26T07:52:52.546Z,7.73
2022-09-26T07:55:21.650Z,8.57
2022-09-26T07:57:50.044Z,8.60
2022-09-26T08:00:18.874Z,8.30
2022-09-26T08:02:46.815Z,9.13
2022-09-26T08:05:20.233Z,8.47
2022-09-26T08:07:47.753Z,8.63
2022-09-26T08:10:20.238Z,9.77
2022-09-26T08:12:47.399Z,10.43
2022-09-26T08:15:14.513Z,11.43
2022-09-26T08:17:41.509Z,8.97
2022-09-26T08:20:08.479Z,9.73
2022-09-26T08:22:35.212Z,8.83
2022-09-26T08:25:01.857Z,8.03
2022-09-26T08:27:32.473Z,9.20
2022-09-26T08:29:59.118Z,8.30
2022-09-26T08:32:25.539Z,7.57
2022-09-26T08:34:52.565Z,6.70
2022-09-26T08:37:21.135Z,8.37
2022-09-26T08:39:48.298Z,9.40
2022-09-26T08:42:34.532Z,8.13
2022-09-26T08:45:50.022Z,7.53
2022-09-26T08:48:43.476Z,8.83
2022-09-26T08:51:46.137Z,8.33
2022-09-26T08:54:16.070Z,6.40
2022-09-26T08:56:54.831Z,5.83
2022-09-26T08:59:48.832Z,5.93
2022-09-26T09:02:37.151Z,6.90
2022-09-26T09:05:39.488Z,8.27
2022-09-26T09:08:13.082Z,7.10
2022-09-26T09:11:08.724Z,6.33
2022-09-26T09:13:53.089Z,5.33
2022-09-26T09:16:40.763Z,5.60
2022-09-26T09:19:32.983Z,5.90
2022-09-26T09:22:29.813Z,5.23
2022-09-26T09:25:03.445Z,5.73
2022-09-26T09:27:59.337Z,5.40
2022-09-26T09:30:39.589Z,5.10
2022-09-26T09:33:12.075Z,5.83
2022-09-26T09:35:42.801Z,5.03
2022-09-26T09:38:15.277Z,5.37
2022-09-26T09:40:46.936Z,5.33
2022-09-26T09:43:39.811Z,5.73
2022-09-26T09:46:23.051Z,5.00
2022-09-26T09:48:53.900Z,5.17
2022-09-26T09:51:56.977Z,5.37
2022-09-26T09:54:32.424Z,5.90
2022-09-26T09:57:17.559Z,5.57
2022-09-26T09:59:47.045Z,5.50
2022-09-26T10:02:19.864Z,5.77
2022-09-26T10:04:52.745Z,4.73
2022-09-26T10:07:19.149Z,4.63
2022-09-26T10:09:45.792Z,5.80
2022-09-26T10:12:17.432Z,4.87
2022-09-26T10:14:56.454Z,4.70
2022-09-26T10:17:23.812Z,4.97
2022-09-26T10:19:50.614Z,5.93
2022-09-26T10:22:26.155Z,5.90
2022-09-26T10:25:08.584Z,6.13
2022-09-26T10:27:42.349Z,6.87
2022-09-26T10:30:18.424Z,7.47
2022-09-26T10:32:47.697Z,6.43
2022-09-26T10:35:19.802Z,7.63
2022-09-26T10:37:57.662Z,7.47
2022-09-26T10:40:46.047Z,7.17
2022-09-26T10:43:30.605Z,7.00
2022-09-26T10:46:11.556Z,7.93
2022-09-26T10:48:47.893Z,6.87
2022-09-26T10:51:36.048Z,6.47
2022-09-26T10:54:10.999Z,6.90
2022-09-26T10:56:42.885Z,6.03
2022-09-26T10:59:10.565Z,6.97
2022-09-26T11:01:42.886Z,7.23
2022-09-26T11:04:48.182Z,6.77
2022-09-26T11:07:26.933Z,7.13
2022-09-26T11:09:58.940Z,6.73
2022-09-26T11:12:27.662Z,6.63
2022-09-26T11:14:56.927Z,6.37
2022-09-26T11:17:40.194Z,6.80
2022-09-26T11:20:09.438Z,6.17
2022-09-26T11:22:43.602Z,5.90
2022-09-26T11:25:18.467Z,6.10
2022-09-26T11:27:50.831Z,5.70
2022-09-26T11:30:20.715Z,6.40
2022-09-26T11:32:52.249Z,5.60
2022-09-26T11:35:33.330Z,5.00
2022-09-26T11:38:09.190Z,4.77
2022-09-26T11:40:53.722Z,4.90
2022-09-26T11:43:25.474Z,4.83
2022-09-26T11:46:05.388Z,4.80
2022-09-26T11:48:39.802Z,4.63
2022-09-26T11:51:15.638Z,4.50
2022-09-26T11:53:55.048Z,4.50
2022-09-26T11:56:30.754Z,5.13
2022-09-26T11:59:24.873Z,5.00
2022-09-26T12:01:55.835Z,4.97
2022-09-26T12:04:41.336Z,4.80
2022-09-26T12:07:29.041Z,4.90
2022-09-26T12:10:04.333Z,5.13
2022-09-26T12:12:40.767Z,5.00
2022-09-26T12:15:33.872Z,5.47
2022-09-26T12:18:24.150Z,4.90
2022-09-26T12:21:31.062Z,5.67
2022-09-26T12:24:09.160Z,5.20
2022-09-26T12:26:44.240Z,6.10
2022-09-26T12:29:21.878Z,6.27
2022-09-26T12:31:59.737Z,5.77
2022-09-26T12:34:44.789Z,6.47
2022-09-26T12:37:41.457Z,6.50
2022-09-26T12:40:10.956Z,6.20
2022-09-26T12:42:47.039Z,6.07
2022-09-26T12:45:29.344Z,6.53
2022-09-26T12:48:18.693Z,6.50
2022-09-26T12:51:14.314Z,6.20
2022-09-26T12:54:25.788Z,6.60
2022-09-26T12:57:24.229Z,6.00
2022-09-26T13:00:06.653Z,5.30
2022-09-26T13:03:05.084Z,5.20
2022-09-26T13:05:40.747Z,5.00
2022-09-26T13:08:10.241Z,4.60
2022-09-26T13:10:55.765Z,4.73
2022-09-26T13:13:40.634Z,4.03
2022-09-26T13:16:16.132Z,4.17
2022-09-26T13:18:48.913Z,4.03
2022-09-26T13:21:49.078Z,3.97
2022-09-26T13:24:24.882Z,3.47
2022-09-26T13:27:14.134Z,3.67
2022-09-26T13:29:43.943Z,4.50
2022-09-26T13:32:18.675Z,3.90
2022-09-26T13:34:51.351Z,4.00
2022-09-26T13:37:37.235Z,4.20
2022-09-26T13:40:21.302Z,3.97
2022-09-26T13:43:03.002Z,3.90
2022-09-26T13:45:40.887Z,3.97
2022-09-26T13:48:12.835Z,4.30
2022-09-26T13:50:42.983Z,3.73
2022-09-26T13:53:23.750Z,3.90
2022-09-26T13:56:30.233Z,4.10
2022-09-26T13:59:25.910Z,3.97
2022-09-26T14:02:18.329Z,4.50
2022-09-26T14:05:08.897Z,4.03
2022-09-26T14:08:07.293Z,4.17
2022-09-26T14:10:36.535Z,3.97
2022-09-26T14:13:10.896Z,4.37
2022-09-26T14:15:46.377Z,4.13
2022-09-26T14:18:25.596Z,4.30
2022-09-26T14:21:10.660Z,4.23
2022-09-26T14:23:40.359Z,4.87
2022-09-26T14:26:27.365Z,4.70
2022-09-26T14:29:24.935Z,4.60
2022-09-26T14:32:12.460Z,4.60
2022-09-26T14:34:49.151Z,4.80
2022-09-26T14:37:39.555Z,4.43
2022-09-26T14:40:29.457Z,5.00
2022-09-26T14:43:12.614Z,5.07
2022-09-26T14:45:38.980Z,4.63
2022-09-26T14:48:11.355Z,5.33
2022-09-26T14:51:00.009Z,3.90
2022-09-26T14:53:30.944Z,5.10
2022-09-26T14:56:14.361Z,4.63
2022-09-26T14:58:51.134Z,4.50
2022-09-26T15:01:25.901Z,4.90
2022-09-26T15:03:59.361Z,4.60
2022-09-26T15:06:27.850Z,4.80
2022-09-26T15:08:55.334Z,4.87
2022-09-26T15:11:44.719Z,4.83
2022-09-26T15:14:19.925Z,4.50
2022-09-26T15:16:49.810Z,4.53
2022-09-26T15:19:20.608Z,4.87
2022-09-26T15:22:13.109Z,4.70
2022-09-26T15:24:39.693Z,4.87
2022-09-26T15:27:18.576Z,5.00
2022-09-26T15:29:48.025Z,5.07
2022-09-26T15:32:19.667Z,5.40
2022-09-26T15:34:47.036Z,5.53
2022-09-26T15:37:19.575Z,5.23
2022-09-26T15:39:46.100Z,5.10
2022-09-26T15:42:33.884Z,5.93
2022-09-26T15:45:01.932Z,5.27
2022-09-26T15:47:31.780Z,5.17
2022-09-26T15:50:21.210Z,4.67
2022-09-26T15:52:52.962Z,5.10
2022-09-26T15:55:23.724Z,5.20
2022-09-26T15:57:51.961Z,5.17
2022-09-26T16:00:18.660Z,4.77
2022-09-26T16:02:45.329Z,4.80
2022-09-26T16:05:13.248Z,4.93
2022-09-26T16:07:41.591Z,5.10
2022-09-26T16:10:33.267Z,5.00
2022-09-26T16:13:00.654Z,5.03
2022-09-26T16:15:28.801Z,5.07
2022-09-26T16:17:57.425Z,5.60
2022-09-26T16:20:32.645Z,4.80
2022-09-26T16:23:05.180Z,5.37
2022-09-26T16:25:34.583Z,4.80
2022-09-26T16:28:10.035Z,4.43
2022-09-26T16:30:59.151Z,4.70
2022-09-26T16:33:33.982Z,4.60
2022-09-26T16:36:29.275Z,4.53
2022-09-26T16:38:57.995Z,4.53
2022-09-26T16:44:33.513Z,4.80
2022-09-26T16:47:03.376Z,4.60
2022-09-26T16:49:39.781Z,4.63
2022-09-26T16:52:11.933Z,4.37
2022-09-26T16:54:38.409Z,5.00
2022-09-26T16:57:05.080Z,4.60
2022-09-26T16:59:32.328Z,4.37
2022-09-26T17:02:02.397Z,4.73
2022-09-26T17:04:34.420Z,4.47
2022-09-26T17:07:12.621Z,4.50
2022-09-26T17:09:41.324Z,4.27
2022-09-26T17:12:18.003Z,4.53
2022-09-26T17:14:46.875Z,5.00
2022-09-26T17:17:16.306Z,4.43
2022-09-26T17:19:44.466Z,4.80
2022-09-26T17:22:19.373Z,4.60
2022-09-26T17:24:47.878Z,4.73
2022-09-26T17:27:17.754Z,4.53
2022-09-26T17:29:48.561Z,5.20
2022-09-26T17:32:29.588Z,5.00
2022-09-26T17:35:01.222Z,4.63
2022-09-26T17:37:28.414Z,5.27
2022-09-26T17:39:55.132Z,5.00
2022-09-26T17:42:25.360Z,4.97
2022-09-26T17:44:51.915Z,5.10
2022-09-26T17:47:19.532Z,4.93
2022-09-26T17:49:56.253Z,4.73
2022-09-26T17:52:31.392Z,5.30
2022-09-26T17:55:06.446Z,5.37
2022-09-26T17:57:38.275Z,5.53
2022-09-26T18:00:10.040Z,5.00
2022-09-26T18:02:43.918Z,5.50
2022-09-26T18:05:22.846Z,5.00
2022-09-26T18:07:52.428Z,4.87
2022-09-26T18:10:22.965Z,5.30
2022-09-26T18:12:56.578Z,5.73
2022-09-26T18:15:23.184Z,5.60
2022-09-26T18:17:50.723Z,5.30
2022-09-26T18:20:22.767Z,5.57
2022-09-26T18:22:51.175Z,5.13
2022-09-26T18:25:22.051Z,5.00
2022-09-26T18:27:53.210Z,5.57
2022-09-26T18:30:21.492Z,5.77
2022-09-26T18:32:52.801Z,5.57
2022-09-26T18:35:24.170Z,5.67
2022-09-26T18:37:51.399Z,5.60
2022-09-26T18:40:18.059Z,5.57
2022-09-26T18:42:45.097Z,5.90
2022-09-26T18:45:14.404Z,5.17
2022-09-26T18:47:45.113Z,5.60
2022-09-26T18:50:34.256Z,5.60
2022-09-26T18:53:00.778Z,5.67
2022-09-26T18:55:45.846Z,5.67
2022-09-26T18:58:27.795Z,5.37
2022-09-26T19:00:58.978Z,6.13
2022-09-26T19:03:28.776Z,6.00
2022-09-26T19:06:02.384Z,5.47
2022-09-26T19:08:43.603Z,5.73
2022-09-26T19:11:13.730Z,5.53
2022-09-26T19:13:41.236Z,5.60
2022-09-26T19:16:08.514Z,5.27
2022-09-26T19:18:35.509Z,5.50
2022-09-26T19:21:05.161Z,5.43
2022-09-26T19:23:33.986Z,5.23
2022-09-26T19:26:00.580Z,5.77
2022-09-26T19:28:28.183Z,5.17
2022-09-26T19:30:55.596Z,5.17
2022-09-26T19:33:22.242Z,5.67
2022-09-26T19:35:48.738Z,5.13
2022-09-26T19:38:22.129Z,5.93
2022-09-26T19:40:49.331Z,5.73
2022-09-26T19:43:15.987Z,5.90
2022-09-26T19:45:43.429Z,5.50
2022-09-26T19:48:16.622Z,5.97
2022-09-26T19:50:44.507Z,6.17
2022-09-26T19:53:16.514Z,6.33
2022-09-26T19:55:43.361Z,6.00
2022-09-26T19:58:15.791Z,5.73
2022-09-26T20:00:43.486Z,6.33
2022-09-26T20:03:17.933Z,6.33
2022-09-26T20:05:49.314Z,6.87
2022-09-26T20:08:18.319Z,6.17
2022-09-26T20:10:44.975Z,7.40
2022-09-26T20:13:11.403Z,6.57
2022-09-26T20:15:41.028Z,6.63
2022-09-26T20:18:08.328Z,7.30
2022-09-26T20:20:35.949Z,6.97
2022-09-26T20:23:02.694Z,7.23
2022-09-26T20:25:30.977Z,7.50
2022-09-26T20:27:58.154Z,7.23
2022-09-26T20:30:43.768Z,7.53
2022-09-26T20:33:10.607Z,7.37
2022-09-26T20:35:41.338Z,8.20
2022-09-26T20:38:11.234Z,8.27
2022-09-26T20:40:38.974Z,9.10
2022-09-26T20:43:14.794Z,8.03
2022-09-26T20:45:41.712Z,7.70
2022-09-26T20:48:17.814Z,8.03
2022-09-26T20:50:44.422Z,7.80
2022-09-26T20:53:21.181Z,7.80
2022-09-26T20:55:48.221Z,8.17
2022-09-26T20:58:15.005Z,8.00
2022-09-26T21:00:42.486Z,8.00
2022-09-26T21:03:13.413Z,8.47
2022-09-26T21:05:39.958Z,8.03
2022-09-26T21:08:13.604Z,8.90
2022-09-26T21:10:40.202Z,8.13
2022-09-26T21:13:06.603Z,7.73
2022-09-26T21:15:33.521Z,7.63
2022-09-26T21:18:00.898Z,7.07
2022-09-26T21:20:32.715Z,7.10
2022-09-26T21:23:02.508Z,7.40
2022-09-26T21:25:31.183Z,6.80
2022-09-26T21:28:01.710Z,7.33
2022-09-26T21:30:28.583Z,6.67
2022-09-26T21:32:56.898Z,6.50
2022-09-26T21:35:27.584Z,6.70
2022-09-26T21:37:54.848Z,6.23
2022-09-26T21:40:23.151Z,6.40
2022-09-26T21:42:51.197Z,6.50
2022-09-26T21:45:19.813Z,6.33
2022-09-26T21:47:48.316Z,6.57
2022-09-26T21:50:14.718Z,6.20
2022-09-26T21:52:45.841Z,6.77
2022-09-26T21:55:24.015Z,7.47
2022-09-26T21:57:52.288Z,6.80
2022-09-26T22:00:18.726Z,6.77
2022-09-26T22:02:45.274Z,7.40
2022-09-26T22:05:12.026Z,7.47
2022-09-26T22:07:38.874Z,7.20
2022-09-26T22:10:06.763Z,7.27
2022-09-26T22:12:33.961Z,6.90
2022-09-26T22:15:01.057Z,6.37
2022-09-26T22:17:28.359Z,6.83
2022-09-26T22:19:55.067Z,6.73
2022-09-26T22:22:21.607Z,6.93
2022-09-26T22:24:48.102Z,6.50
2022-09-26T22:27:14.493Z,6.70
2022-09-26T22:29:40.991Z,6.57
2022-09-26T22:32:07.414Z,6.50
2022-09-26T22:34:33.837Z,7.20
2022-09-26T22:37:00.287Z,7.80
2022-09-26T22:39:26.686Z,7.60
2022-09-26T22:41:53.095Z,6.57
2022-09-26T22:44:19.812Z,6.60
2022-09-26T22:46:46.216Z,5.83
2022-09-26T22:49:12.699Z,6.20
2022-09-26T22:51:39.180Z,6.30
2022-09-26T22:54:05.602Z,6.67
2022-09-26T22:56:32.067Z,7.10
2022-09-26T22:58:58.519Z,7.00
2022-09-26T23:01:29.903Z,7.27
2022-09-26T23:04:00.440Z,7.27
2022-09-26T23:06:27.453Z,6.70
2022-09-26T23:08:54.639Z,6.80
2022-09-26T23:11:21.913Z,7.20
2022-09-26T23:13:50.601Z,7.13
2022-09-26T23:16:22.482Z,6.80
2022-09-26T23:18:50.043Z,7.13
2022-09-26T23:21:27.114Z,6.93
2022-09-26T23:23:55.985Z,6.83
2022-09-26T23:26:28.007Z,7.20
2022-09-26T23:28:55.805Z,6.43
2022-09-26T23:31:23.979Z,7.00
2022-09-26T23:33:50.836Z,6.60
2022-09-26T23:36:17.306Z,6.40
2022-09-26T23:38:43.800Z,6.87
2022-09-26T23:41:11.338Z,7.40
2022-09-26T23:43:38.546Z,7.00
2022-09-26T23:46:05.136Z,6.40
2022-09-26T23:48:31.665Z,7.27
2022-09-26T23:50:58.223Z,6.73
2022-09-26T23:53:26.058Z,6.70
2022-09-26T23:55:52.960Z,7.20
2022-09-26T23:58:19.349Z,7.10
